sensor_id;sensor_type;location;lat;lon;timestamp;P1;durP1;ratioP1;P2;durP2;ratioP2
19364;SDS011;9818;48.382;10.850;2022-10-04T06:10:54;4.77;;;3.80;;
19364;SDS011;9818;48.382;10.850;2022-10-04T06:13:48;4.83;;;3.63;;
19364;SDS011;9818;48.382;10.850;2022-10-04T06:16:41;4.33;;;3.93;;
19364;SDS011;9818;48.382;10.850;2022-10-04T06:19:36;5.40;;;3.50;;
19364;SDS011;9818;48.382;10.850;2022-10-04T06:22:28;4.77;;;3.90;;
19364;SDS011;9818;48.382;10.850;2022-10-04T06:24:59;4.20;;;3.80;;
19364;SDS011;9818;48.382;10.850;2022-10-04T06:27:34;4.17;;;3.47;;
19364;SDS011;9818;48.382;10.850;2022-10-04T06:30:11;3.77;;;3.47;;
19364;SDS011;9818;48.382;10.850;2022-10-04T06:35:55;4.83;;;3.53;;
19364;SDS011;9818;48.382;10.850;2022-10-04T06:38:41;5.50;;;4.00;;
19364;SDS011;9818;48.382;10.850;2022-10-04T06:41:27;4.17;;;3.53;;
19364;SDS011;9818;48.382;10.850;2022-10-04T06:46:51;5.70;;;3.77;;
19364;SDS011;9818;48.382;10.850;2022-10-04T06:49:36;3.97;;;3.50;;
19364;SDS011;9818;48.382;10.850;2022-10-04T07:00:58;5.47;;;3.87;;
19364;SDS011;9818;48.382;10.850;2022-10-04T07:06:06;6.83;;;3.93;;
19364;SDS011;9818;48.382;10.850;2022-10-04T07:08:38;4.20;;;3.77;;
19364;SDS011;9818;48.382;10.850;2022-10-04T07:11:13;4.67;;;3.63;;
19364;SDS011;9818;48.382;10.850;2022-10-04T07:13:50;3.93;;;3.47;;
19364;SDS011;9818;48.382;10.850;2022-10-04T07:16:31;4.13;;;3.23;;
19364;SDS011;9818;48.382;10.850;2022-10-04T07:19:16;3.43;;;3.07;;
19364;SDS011;9818;48.382;10.850;2022-10-04T07:21:55;3.77;;;3.20;;
19364;SDS011;9818;48.382;10.850;2022-10-04T07:24:36;4.47;;;3.60;;
19364;SDS011;9818;48.382;10.850;2022-10-04T07:27:12;4.03;;;3.63;;
19364;SDS011;9818;48.382;10.850;2022-10-04T07:29:44;6.07;;;3.40;;
19364;SDS011;9818;48.382;10.850;2022-10-04T07:37:18;4.83;;;3.77;;
19364;SDS011;9818;48.382;10.850;2022-10-04T07:39:49;4.05;;;3.50;;
19364;SDS011;9818;48.382;10.850;2022-10-04T07:45:00;4.87;;;3.50;;
19364;SDS011;9818;48.382;10.850;2022-10-04T07:47:35;5.13;;;3.87;;
19364;SDS011;9818;48.382;10.850;2022-10-04T07:52:55;5.43;;;3.83;;
19364;SDS011;9818;48.382;10.850;2022-10-04T07:55:29;4.57;;;3.50;;
19364;SDS011;9818;48.382;10.850;2022-10-04T07:58:13;5.10;;;3.67;;
19364;SDS011;9818;48.382;10.850;2022-10-04T08:00:52;5.93;;;3.87;;
19364;SDS011;9818;48.382;10.850;2022-10-04T08:06:28;5.43;;;3.40;;
19364;SDS011;9818;48.382;10.850;2022-10-04T08:11:55;7.63;;;3.53;;
19364;SDS011;9818;48.382;10.850;2022-10-04T08:14:35;5.93;;;3.87;;
19364;SDS011;9818;48.382;10.850;2022-10-04T08:17:18;4.83;;;3.40;;
19364;SDS011;9818;48.382;10.850;2022-10-04T08:20:01;4.37;;;3.60;;
19364;SDS011;9818;48.382;10.850;2022-10-04T08:22:53;4.73;;;3.57;;
19364;SDS011;9818;48.382;10.850;2022-10-04T08:25:32;6.07;;;3.90;;
19364;SDS011;9818;48.382;10.850;2022-10-04T08:28:13;3.57;;;3.27;;
19364;SDS011;9818;48.382;10.850;2022-10-04T08:31:06;4.70;;;3.77;;
19364;SDS011;9818;48.382;10.850;2022-10-04T08:33:52;6.23;;;3.30;;
19364;SDS011;9818;48.382;10.850;2022-10-04T08:36:31;6.67;;;3.60;;
19364;SDS011;9818;48.382;10.850;2022-10-04T08:39:20;3.90;;;3.40;;
19364;SDS011;9818;48.382;10.850;2022-10-04T08:42:22;3.73;;;3.20;;
19364;SDS011;9818;48.382;10.850;2022-10-04T08:45:22;6.47;;;3.00;;
19364;SDS011;9818;48.382;10.850;2022-10-04T08:51:18;4.80;;;3.20;;
19364;SDS011;9818;48.382;10.850;2022-10-04T09:00:18;5.83;;;3.10;;
19364;SDS011;9818;48.382;10.850;2022-10-04T09:02:59;4.97;;;2.90;;
19364;SDS011;9818;48.382;10.850;2022-10-04T09:06:05;4.67;;;3.47;;
19364;SDS011;9818;48.382;10.850;2022-10-04T09:08:58;4.50;;;2.63;;
19364;SDS011;9818;48.382;10.850;2022-10-04T09:14:49;5.27;;;3.00;;
19364;SDS011;9818;48.382;10.850;2022-10-04T09:17:39;9.60;;;3.00;;
19364;SDS011;9818;48.382;10.850;2022-10-04T09:20:19;4.00;;;3.00;;
19364;SDS011;9818;48.382;10.850;2022-10-04T09:22:57;5.53;;;3.20;;
19364;SDS011;9818;48.382;10.850;2022-10-04T09:25:46;4.27;;;2.93;;
19364;SDS011;9818;48.382;10.850;2022-10-04T09:28:40;5.53;;;3.27;;
19364;SDS011;9818;48.382;10.850;2022-10-04T09:34:18;6.80;;;3.30;;
19364;SDS011;9818;48.382;10.850;2022-10-04T09:37:16;4.43;;;3.20;;
19364;SDS011;9818;48.382;10.850;2022-10-04T09:39:58;4.13;;;3.00;;
19364;SDS011;9818;48.382;10.850;2022-10-04T09:43:05;4.87;;;2.90;;
19364;SDS011;9818;48.382;10.850;2022-10-04T09:45:48;4.70;;;3.17;;
19364;SDS011;9818;48.382;10.850;2022-10-04T09:48:28;3.20;;;2.90;;
19364;SDS011;9818;48.382;10.850;2022-10-04T09:51:16;5.70;;;3.20;;
19364;SDS011;9818;48.382;10.850;2022-10-04T09:54:13;5.60;;;3.30;;
19364;SDS011;9818;48.382;10.850;2022-10-04T09:57:06;5.87;;;3.27;;
19364;SDS011;9818;48.382;10.850;2022-10-04T10:05:48;6.20;;;3.17;;
19364;SDS011;9818;48.382;10.850;2022-10-04T10:08:29;5.57;;;4.20;;
19364;SDS011;9818;48.382;10.850;2022-10-04T10:11:04;4.33;;;3.50;;
19364;SDS011;9818;48.382;10.850;2022-10-04T10:16:55;3.50;;;2.90;;
19364;SDS011;9818;48.382;10.850;2022-10-04T10:22:46;5.23;;;3.57;;
19364;SDS011;9818;48.382;10.850;2022-10-04T10:25:30;6.03;;;3.30;;
19364;SDS011;9818;48.382;10.850;2022-10-04T10:28:25;19.20;;;8.17;;
19364;SDS011;9818;48.382;10.850;2022-10-04T10:31:14;10.40;;;5.40;;
19364;SDS011;9818;48.382;10.850;2022-10-04T10:36:56;18.83;;;9.07;;
19364;SDS011;9818;48.382;10.850;2022-10-04T10:39:52;8.73;;;4.97;;
19364;SDS011;9818;48.382;10.850;2022-10-04T10:42:43;7.03;;;4.07;;
19364;SDS011;9818;48.382;10.850;2022-10-04T10:45:33;6.77;;;3.57;;
19364;SDS011;9818;48.382;10.850;2022-10-04T10:48:11;6.90;;;3.67;;
19364;SDS011;9818;48.382;10.850;2022-10-04T10:50:53;5.57;;;3.00;;
19364;SDS011;9818;48.382;10.850;2022-10-04T10:56:44;4.17;;;2.73;;
19364;SDS011;9818;48.382;10.850;2022-10-04T10:59:36;4.80;;;2.80;;
19364;SDS011;9818;48.382;10.850;2022-10-04T11:02:36;6.20;;;3.17;;
19364;SDS011;9818;48.382;10.850;2022-10-04T11:05:35;5.70;;;2.77;;
19364;SDS011;9818;48.382;10.850;2022-10-04T11:08:35;5.47;;;2.97;;
19364;SDS011;9818;48.382;10.850;2022-10-04T11:11:34;4.97;;;3.50;;
19364;SDS011;9818;48.382;10.850;2022-10-04T11:14:38;3.97;;;2.73;;
19364;SDS011;9818;48.382;10.850;2022-10-04T11:17:34;3.33;;;2.57;;
19364;SDS011;9818;48.382;10.850;2022-10-04T11:23:44;3.37;;;2.30;;
19364;SDS011;9818;48.382;10.850;2022-10-04T11:26:38;2.77;;;2.43;;
19364;SDS011;9818;48.382;10.850;2022-10-04T11:29:38;3.13;;;2.80;;
19364;SDS011;9818;48.382;10.850;2022-10-04T11:38:26;4.90;;;3.10;;
19364;SDS011;9818;48.382;10.850;2022-10-04T11:41:17;3.47;;;2.80;;
19364;SDS011;9818;48.382;10.850;2022-10-04T11:44:04;3.77;;;2.33;;
19364;SDS011;9818;48.382;10.850;2022-10-04T11:46:43;4.13;;;2.50;;
19364;SDS011;9818;48.382;10.850;2022-10-04T11:49:23;3.27;;;2.70;;
19364;SDS011;9818;48.382;10.850;2022-10-04T11:52:16;4.23;;;2.70;;
19364;SDS011;9818;48.382;10.850;2022-10-04T16:09:37;2.37;;;2.00;;
19364;SDS011;9818;48.382;10.850;2022-10-04T16:12:16;3.37;;;2.10;;
19364;SDS011;9818;48.382;10.850;2022-10-04T16:14:53;2.60;;;2.13;;
19364;SDS011;9818;48.382;10.850;2022-10-04T16:20:27;3.23;;;2.80;;
19364;SDS011;9818;48.382;10.850;2022-10-04T16:23:26;7.40;;;2.40;;
19364;SDS011;9818;48.382;10.850;2022-10-04T16:26:00;2.57;;;2.00;;
19364;SDS011;9818;48.382;10.850;2022-10-04T16:28:42;3.07;;;2.30;;
19364;SDS011;9818;48.382;10.850;2022-10-04T16:34:28;3.67;;;2.10;;
19364;SDS011;9818;48.382;10.850;2022-10-04T16:37:14;2.77;;;2.17;;
19364;SDS011;9818;48.382;10.850;2022-10-04T16:39:50;3.37;;;2.17;;
19364;SDS011;9818;48.382;10.850;2022-10-04T16:42:28;2.57;;;2.10;;
19364;SDS011;9818;48.382;10.850;2022-10-04T17:09:16;3.23;;;2.30;;
19364;SDS011;9818;48.382;10.850;2022-10-04T17:11:57;4.87;;;2.87;;
19364;SDS011;9818;48.382;10.850;2022-10-04T17:17:55;5.10;;;3.70;;
19364;SDS011;9818;48.382;10.850;2022-10-04T17:20:43;3.67;;;2.73;;
19364;SDS011;9818;48.382;10.850;2022-10-04T17:23:25;4.00;;;3.03;;
19364;SDS011;9818;48.382;10.850;2022-10-04T17:26:12;5.70;;;3.87;;
19364;SDS011;9818;48.382;10.850;2022-10-04T17:28:54;4.77;;;3.60;;
19364;SDS011;9818;48.382;10.850;2022-10-04T17:31:25;7.03;;;5.17;;
19364;SDS011;9818;48.382;10.850;2022-10-04T17:34:02;5.90;;;4.87;;
19364;SDS011;9818;48.382;10.850;2022-10-04T17:36:40;5.97;;;4.37;;
19364;SDS011;9818;48.382;10.850;2022-10-04T17:39:21;5.70;;;4.50;;
19364;SDS011;9818;48.382;10.850;2022-10-04T17:42:11;4.17;;;3.43;;
19364;SDS011;9818;48.382;10.850;2022-10-04T17:47:42;4.70;;;3.13;;
19364;SDS011;9818;48.382;10.850;2022-10-04T17:50:28;3.33;;;2.70;;
19364;SDS011;9818;48.382;10.850;2022-10-04T17:53:17;3.30;;;2.83;;
19364;SDS011;9818;48.382;10.850;2022-10-04T17:56:02;4.80;;;3.37;;
19364;SDS011;9818;48.382;10.850;2022-10-04T17:58:43;3.50;;;2.53;;
19364;SDS011;9818;48.382;10.850;2022-10-04T18:01:23;3.20;;;2.73;;
19364;SDS011;9818;48.382;10.850;2022-10-04T18:03:56;4.70;;;2.93;;
19364;SDS011;9818;48.382;10.850;2022-10-04T18:06:35;3.67;;;2.87;;
19364;SDS011;9818;48.382;10.850;2022-10-04T18:09:10;4.77;;;3.53;;
19364;SDS011;9818;48.382;10.850;2022-10-04T18:11:48;4.60;;;3.40;;
19364;SDS011;9818;48.382;10.850;2022-10-04T18:17:21;7.60;;;4.53;;
19364;SDS011;9818;48.382;10.850;2022-10-04T18:20:06;9.97;;;5.33;;
19364;SDS011;9818;48.382;10.850;2022-10-04T18:22:47;8.53;;;5.33;;
19364;SDS011;9818;48.382;10.850;2022-10-04T18:25:19;6.53;;;4.57;;
19364;SDS011;9818;48.382;10.850;2022-10-04T18:27:51;5.60;;;3.53;;
19364;SDS011;9818;48.382;10.850;2022-10-04T18:30:34;6.00;;;5.03;;
19364;SDS011;9818;48.382;10.850;2022-10-04T18:33:23;4.20;;;3.43;;
19364;SDS011;9818;48.382;10.850;2022-10-04T18:36:02;4.13;;;3.63;;
19364;SDS011;9818;48.382;10.850;2022-10-04T18:38:33;3.53;;;3.10;;
19364;SDS011;9818;48.382;10.850;2022-10-04T18:41:02;3.83;;;2.90;;
19364;SDS011;9818;48.382;10.850;2022-10-04T18:43:49;5.20;;;3.83;;
19364;SDS011;9818;48.382;10.850;2022-10-04T18:46:21;5.47;;;3.70;;
19364;SDS011;9818;48.382;10.850;2022-10-04T18:48:51;5.97;;;4.40;;
19364;SDS011;9818;48.382;10.850;2022-10-04T18:51:26;7.10;;;4.43;;
19364;SDS011;9818;48.382;10.850;2022-10-04T18:53:59;7.37;;;4.70;;
19364;SDS011;9818;48.382;10.850;2022-10-04T18:56:43;6.30;;;4.60;;
19364;SDS011;9818;48.382;10.850;2022-10-04T18:59:26;4.87;;;3.77;;
19364;SDS011;9818;48.382;10.850;2022-10-04T19:02:18;4.50;;;3.70;;
19364;SDS011;9818;48.382;10.850;2022-10-04T19:04:55;5.03;;;4.00;;
19364;SDS011;9818;48.382;10.850;2022-10-04T19:07:33;6.17;;;3.87;;
19364;SDS011;9818;48.382;10.850;2022-10-04T19:10:14;6.57;;;4.77;;
19364;SDS011;9818;48.382;10.850;2022-10-04T19:13:05;6.67;;;4.37;;
19364;SDS011;9818;48.382;10.850;2022-10-04T19:15:52;8.33;;;5.43;;
19364;SDS011;9818;48.382;10.850;2022-10-04T19:18:55;6.17;;;4.50;;
19364;SDS011;9818;48.382;10.850;2022-10-04T19:21:31;10.87;;;7.00;;
19364;SDS011;9818;48.382;10.850;2022-10-04T19:24:15;13.30;;;8.50;;
19364;SDS011;9818;48.382;10.850;2022-10-04T19:26:56;12.13;;;7.07;;
19364;SDS011;9818;48.382;10.850;2022-10-04T19:29:31;12.53;;;7.10;;
19364;SDS011;9818;48.382;10.850;2022-10-04T19:32:11;9.47;;;5.77;;
19364;SDS011;9818;48.382;10.850;2022-10-04T19:34:51;10.80;;;6.30;;
19364;SDS011;9818;48.382;10.850;2022-10-04T19:37:31;7.63;;;5.10;;
19364;SDS011;9818;48.382;10.850;2022-10-04T19:40:05;8.53;;;6.13;;
19364;SDS011;9818;48.382;10.850;2022-10-04T19:42:43;9.97;;;6.27;;
19364;SDS011;9818;48.382;10.850;2022-10-04T19:45:23;9.97;;;4.40;;
19364;SDS011;9818;48.382;10.850;2022-10-04T19:47:59;7.07;;;4.93;;
19364;SDS011;9818;48.382;10.850;2022-10-04T19:50:38;8.20;;;6.47;;
19364;SDS011;9818;48.382;10.850;2022-10-04T19:53:12;9.07;;;5.60;;
19364;SDS011;9818;48.382;10.850;2022-10-04T19:55:49;8.80;;;7.20;;
19364;SDS011;9818;48.382;10.850;2022-10-04T19:58:27;6.00;;;5.33;;
19364;SDS011;9818;48.382;10.850;2022-10-04T20:01:07;8.73;;;6.37;;
19364;SDS011;9818;48.382;10.850;2022-10-04T20:03:38;8.47;;;7.40;;
19364;SDS011;9818;48.382;10.850;2022-10-04T20:06:11;11.57;;;7.43;;
19364;SDS011;9818;48.382;10.850;2022-10-04T20:08:50;11.03;;;7.67;;
19364;SDS011;9818;48.382;10.850;2022-10-04T20:11:22;13.83;;;8.70;;
19364;SDS011;9818;48.382;10.850;2022-10-04T20:17:01;12.23;;;8.03;;
19364;SDS011;9818;48.382;10.850;2022-10-04T20:19:36;11.73;;;7.97;;
19364;SDS011;9818;48.382;10.850;2022-10-04T20:25:00;8.40;;;6.07;;
19364;SDS011;9818;48.382;10.850;2022-10-04T20:36:11;9.50;;;5.07;;
19364;SDS011;9818;48.382;10.850;2022-10-04T20:39:05;10.03;;;5.53;;
19364;SDS011;9818;48.382;10.850;2022-10-04T20:41:44;13.47;;;7.73;;
19364;SDS011;9818;48.382;10.850;2022-10-04T20:44:42;8.70;;;7.40;;
19364;SDS011;9818;48.382;10.850;2022-10-04T21:00:22;10.77;;;8.30;;
19364;SDS011;9818;48.382;10.850;2022-10-04T21:03:11;11.43;;;8.57;;
19364;SDS011;9818;48.382;10.850;2022-10-04T21:05:43;10.20;;;7.80;;
19364;SDS011;9818;48.382;10.850;2022-10-04T21:08:14;16.50;;;8.70;;
19364;SDS011;9818;48.382;10.850;2022-10-04T21:13:49;11.07;;;8.30;;
19364;SDS011;9818;48.382;10.850;2022-10-04T21:16:36;11.83;;;7.73;;
19364;SDS011;9818;48.382;10.850;2022-10-04T21:22:33;10.63;;;7.50;;
